Time;durP1;ratioP1;P1;durP2;ratioP2;P2;SDS_P1;SDS_P2;PMS_P1;PMS_P2;Temp;Humidity;BMP_temperature;BMP_pressure;BME280_temperature;BME280_humidity;BME280_pressure;Samples;Min_cycle;Max_cycle;Signal;HPM_P1;HPM_P2
2022/11/21 00:01:37;;;;;;;;;;;;;;;4.40;99.89;100497.13;5050042;28;19916;-55
2022/11/21 00:04:02;;;;;;;;;;;;;;;4.42;99.74;100492.56;5050251;28;20487;-53
2022/11/21 00:06:27;;;;;;;;;;;;;;;4.45;99.74;100495.72;5047751;28;19917;-51
2022/11/21 00:08:52;;;;;;;;;;;;;;;4.48;99.69;100484.94;5047499;28;19917;-54
2022/11/21 00:11:17;;;;;;;;;;;;;;;4.49;99.77;100494.47;5050515;28;19932;-57
2022/11/21 00:13:44;;;;;;;;;;;;;;;4.50;99.69;100496.13;5048671;28;20130;-52
2022/11/21 00:16:10;;;;;;;;;;;;;;;4.50;99.73;100496.13;5044494;28;19920;-53
2022/11/21 00:18:36;;;;;;;;;;;;;;;4.48;99.71;100503.34;5044979;28;20012;-51
2022/11/21 00:21:09;;;;;;;;;;;;;;;4.47;99.66;100509.56;5046436;28;20066;-57
2022/11/21 00:23:34;;;;;;;;;;;;;;;4.45;99.21;100529.06;5046236;28;20292;-51
2022/11/21 00:26:02;;;;;;;;;;;;;;;4.43;99.48;100533.66;5050145;28;19917;-55
2022/11/21 00:28:27;;;;;;;;;;;;;;;4.40;99.15;100539.19;5051531;28;19916;-55
2022/11/21 00:30:52;;;;;;;;;;;;;;;4.37;99.50;100534.19;5053403;28;20059;-53
2022/11/21 00:33:17;;;;;;;;;;;;;;;4.33;99.07;100531.81;5052103;28;20450;-53
2022/11/21 00:35:43;;;;;;;;;;;;;;;4.32;98.93;100524.06;5050579;28;19931;-55
2022/11/21 00:38:08;;;;;;;;;;;;;;;4.29;99.05;100522.56;5051611;28;19954;-54
2022/11/21 00:40:33;;;;;;;;;;;;;;;4.29;99.06;100509.41;5049456;28;19923;-54
2022/11/21 00:42:58;;;;;;;;;;;;;;;4.28;98.78;100499.88;5051030;28;20369;-51
2022/11/21 00:45:23;;;;;;;;;;;;;;;4.25;98.93;100489.63;5051015;28;19960;-54
2022/11/21 00:47:48;;;;;;;;;;;;;;;4.24;98.96;100501.13;5050664;28;19951;-55
2022/11/21 00:50:14;;;;;;;;;;;;;;;4.23;98.72;100501.25;5049022;28;19955;-52
2022/11/21 00:52:39;;;;;;;;;;;;;;;4.22;98.89;100502.22;5051930;28;19920;-55
2022/11/21 00:55:05;;;;;;;;;;;;;;;4.21;98.87;100495.31;5052752;28;20010;-54
2022/11/21 00:57:30;;;;;;;;;;;;;;;4.21;98.77;100500.56;5050763;28;19974;-53
2022/11/21 00:59:55;;;;;;;;;;;;;;;4.20;98.79;100509.41;5045895;28;19920;-55
2022/11/21 01:02:20;;;;;;;;;;;;;;;4.21;98.65;100511.09;5048420;28;19921;-56
2022/11/21 01:04:45;;;;;;;;;;;;;;;4.21;98.67;100518.97;5050962;28;19967;-55
2022/11/21 01:07:12;;;;;;;;;;;;;;;4.21;98.62;100511.09;5050432;28;19916;-55
2022/11/21 01:09:37;;;;;;;;;;;;;;;4.20;98.74;100512.88;5048031;28;19978;-54
2022/11/21 01:12:02;;;;;;;;;;;;;;;4.20;98.66;100520.75;5048646;28;19935;-55
2022/11/21 01:14:27;;;;;;;;;;;;;;;4.20;98.66;100517.31;5048978;28;19924;-56
2022/11/21 01:16:53;;;;;;;;;;;;;;;4.20;98.56;100522.56;5049600;28;19999;-54
2022/11/21 01:19:18;;;;;;;;;;;;;;;4.19;98.30;100513.84;5047389;28;20042;-54
2022/11/21 01:21:43;;;;;;;;;;;;;;;4.19;98.28;100516.47;5044879;28;20015;-55
2022/11/21 01:24:10;;;;;;;;;;;;;;;4.19;98.40;100515.66;5046599;28;20340;-53
2022/11/21 01:26:36;;;;;;;;;;;;;;;4.16;98.44;100508.88;5050169;28;19943;-56
2022/11/21 01:29:02;;;;;;;;;;;;;;;4.16;98.25;100513.28;5047844;28;19950;-56
2022/11/21 01:31:28;;;;;;;;;;;;;;;4.13;98.25;100511.78;5048796;28;20559;-53
2022/11/21 01:33:55;;;;;;;;;;;;;;;4.14;98.19;100512.59;5042950;28;19931;-54
2022/11/21 01:36:22;;;;;;;;;;;;;;;4.15;98.36;100511.63;5051307;28;20011;-56
2022/11/21 01:38:48;;;;;;;;;;;;;;;4.16;98.16;100513.28;5049179;28;19924;-53
2022/11/21 01:41:15;;;;;;;;;;;;;;;4.17;98.12;100496.56;5048202;28;19924;-55
2022/11/21 01:43:40;;;;;;;;;;;;;;;4.16;98.27;100492.28;5045340;28;20365;-55
2022/11/21 01:46:13;;;;;;;;;;;;;;;4.13;98.45;100487.28;5046471;28;19977;-54
2022/11/21 01:48:41;;;;;;;;;;;;;;;4.13;98.68;100496.00;5049611;28;19916;-54
2022/11/21 01:51:13;;;;;;;;;;;;;;;4.13;98.34;100497.81;5048977;28;19928;-54
2022/11/21 01:53:41;;;;;;;;;;;;;;;4.14;98.50;100512.59;5049478;28;20312;-55
2022/11/21 01:56:07;;;;;;;;;;;;;;;4.13;98.47;100510.94;5047400;28;19925;-54
2022/11/21 01:58:32;;;;;;;;;;;;;;;4.12;98.35;100510.13;5045164;28;19916;-55
2022/11/21 02:00:58;;;;;;;;;;;;;;;4.13;98.15;100513.56;5044471;28;19924;-53
2022/11/21 02:03:25;;;;;;;;;;;;;;;4.13;98.14;100510.94;5049041;28;20453;-54
2022/11/21 02:05:53;;;;;;;;;;;;;;;4.12;98.15;100509.28;5046781;28;19970;-51
2022/11/21 02:08:19;;;;;;;;;;;;;;;4.10;98.19;100506.78;5046056;28;19925;-51
2022/11/21 02:10:48;;;;;;;;;;;;;;;4.10;98.01;100511.22;5048806;28;19975;-54
2022/11/21 02:13:13;;;;;;;;;;;;;;;4.09;98.00;100513.03;5045347;28;20289;-53
2022/11/21 02:15:39;;;;;;;;;;;;;;;4.08;98.02;100514.00;5047995;28;20420;-51
2022/11/21 02:18:05;;;;;;;;;;;;;;;4.10;98.26;100505.97;5042458;28;19917;-54
2022/11/21 02:20:30;;;;;;;;;;;;;;;4.10;98.02;100503.34;5046455;28;19924;-51
2022/11/21 02:23:04;;;;;;;;;;;;;;;4.08;97.82;100500.03;5049259;28;19917;-53
2022/11/21 02:25:32;;;;;;;;;;;;;;;4.06;98.07;100509.84;5047311;28;20296;-55
2022/11/21 02:28:00;;;;;;;;;;;;;;;4.00;97.90;100500.69;5042577;28;19917;-54
2022/11/21 02:30:29;;;;;;;;;;;;;;;4.05;97.79;100519.53;5048444;28;19916;-53
2022/11/21 02:32:54;;;;;;;;;;;;;;;4.07;97.97;100527.25;5048150;28;19944;-52
2022/11/21 02:35:19;;;;;;;;;;;;;;;4.06;97.85;100539.56;5048236;28;20105;-53
2022/11/21 02:37:45;;;;;;;;;;;;;;;4.08;97.98;100536.81;5048017;28;19924;-53
2022/11/21 02:40:16;;;;;;;;;;;;;;;4.08;97.77;100534.19;5046973;28;19920;-51
2022/11/21 02:42:44;;;;;;;;;;;;;;;4.07;97.95;100527.25;5046612;28;19931;-54
2022/11/21 02:45:12;;;;;;;;;;;;;;;4.06;98.07;100509.84;5045875;28;19996;-52
2022/11/21 02:47:39;;;;;;;;;;;;;;;4.06;97.79;100526.44;5048674;28;20000;-54
2022/11/21 02:50:10;;;;;;;;;;;;;;;4.07;97.80;100522.00;5041166;28;19921;-51
2022/11/21 02:52:35;;;;;;;;;;;;;;;4.07;98.01;100532.53;5046911;28;20503;-54
2022/11/21 02:55:00;;;;;;;;;;;;;;;4.07;98.01;100538.59;5049283;28;19925;-55
2022/11/21 02:57:25;;;;;;;;;;;;;;;4.04;97.97;100544.09;5046910;28;19920;-54
2022/11/21 02:59:50;;;;;;;;;;;;;;;3.97;97.96;100530.69;5047672;28;19944;-55
2022/11/21 03:02:16;;;;;;;;;;;;;;;3.93;97.83;100526.66;5047671;28;19947;-53
2022/11/21 03:04:41;;;;;;;;;;;;;;;3.93;97.86;100534.56;5045576;28;19917;-52
2022/11/21 03:07:06;;;;;;;;;;;;;;;3.94;97.87;100530.13;5045695;28;20295;-54
2022/11/21 03:09:31;;;;;;;;;;;;;;;3.93;97.67;100531.09;5042555;28;20437;-53
2022/11/21 03:11:56;;;;;;;;;;;;;;;3.93;97.69;100513.53;5056289;28;19920;-54
2022/11/21 03:14:21;;;;;;;;;;;;;;;3.93;97.88;100510.91;5038648;28;19932;-53
2022/11/21 03:16:47;;;;;;;;;;;;;;;3.91;97.84;100507.59;5044117;28;19929;-53
2022/11/21 03:19:12;;;;;;;;;;;;;;;3.87;97.61;100503.56;5045655;28;19924;-53
2022/11/21 03:21:37;;;;;;;;;;;;;;;3.83;97.70;100494.31;5047924;28;20023;-55
2022/11/21 03:24:02;;;;;;;;;;;;;;;3.81;97.83;100492.78;5043931;28;19925;-54
2022/11/21 03:26:28;;;;;;;;;;;;;;;3.81;97.59;100496.25;5046535;28;19924;-52
2022/11/21 03:28:53;;;;;;;;;;;;;;;3.82;97.58;100495.28;5039990;28;19917;-54
2022/11/21 03:31:18;;;;;;;;;;;;;;;3.84;97.72;100489.91;5046522;28;20007;-51
2022/11/21 03:33:43;;;;;;;;;;;;;;;3.83;97.49;100491.69;5045372;28;19924;-55
2022/11/21 03:36:08;;;;;;;;;;;;;;;3.83;97.60;100494.31;5044952;28;20016;-54
2022/11/21 03:38:33;;;;;;;;;;;;;;;3.82;97.61;100497.09;5045658;28;19948;-51
2022/11/21 03:41:02;;;;;;;;;;;;;;;3.81;97.79;100501.50;5039678;28;19924;-55
2022/11/21 03:43:27;;;;;;;;;;;;;;;3.81;97.78;100498.03;5040691;28;20358;-51
2022/11/21 03:45:52;;;;;;;;;;;;;;;3.81;97.69;100500.66;5043966;28;19917;-55
2022/11/21 03:48:18;;;;;;;;;;;;;;;3.83;97.92;100496.13;5045852;28;19925;-54
2022/11/21 03:50:43;;;;;;;;;;;;;;;3.83;97.43;100496.94;5054547;28;20047;-52
2022/11/21 03:53:08;;;;;;;;;;;;;;;3.84;97.60;100489.91;5043003;28;19924;-54
2022/11/21 03:55:33;;;;;;;;;;;;;;;3.85;97.53;100489.75;5048336;28;19920;-54
2022/11/21 03:57:59;;;;;;;;;;;;;;;3.87;97.46;100490.44;5047917;28;19912;-54
2022/11/21 04:00:24;;;;;;;;;;;;;;;3.84;97.59;100492.53;5048587;28;20032;-54
2022/11/21 04:02:49;;;;;;;;;;;;;;;3.81;97.84;100491.00;5046891;28;19936;-52
2022/11/21 04:05:14;;;;;;;;;;;;;;;3.82;97.71;100495.28;5047298;28;19924;-52
2022/11/21 04:07:39;;;;;;;;;;;;;;;3.81;97.79;100501.50;5047290;28;19917;-52
2022/11/21 04:10:05;;;;;;;;;;;;;;;3.83;97.85;100509.25;5045990;28;20292;-53
2022/11/21 04:12:30;;;;;;;;;;;;;;;3.88;97.77;100509.66;5046858;28;19916;-51
2022/11/21 04:14:55;;;;;;;;;;;;;;;3.89;97.72;100506.91;5048063;28;19921;-54
2022/11/21 04:17:20;;;;;;;;;;;;;;;3.91;97.67;100504.13;5047065;28;19962;-53
2022/11/21 04:19:45;;;;;;;;;;;;;;;3.92;97.89;100498.75;5045773;28;19995;-54
2022/11/21 04:22:10;;;;;;;;;;;;;;;3.92;97.68;100503.16;5052550;28;19962;-53
2022/11/21 04:24:36;;;;;;;;;;;;;;;3.92;97.68;100511.88;5045995;28;20003;-54
2022/11/21 04:27:01;;;;;;;;;;;;;;;3.94;97.75;100511.75;5047309;28;19913;-52
2022/11/21 04:29:26;;;;;;;;;;;;;;;3.95;97.76;100506.34;5047519;28;19971;-54
2022/11/21 04:31:51;;;;;;;;;;;;;;;3.96;97.87;100488.78;5048251;28;19924;-55
2022/11/21 04:34:16;;;;;;;;;;;;;;;3.93;97.68;100494.31;5042440;28;20007;-55
2022/11/21 04:36:41;;;;;;;;;;;;;;;3.93;97.63;100487.28;5046974;28;19917;-54
2022/11/21 04:39:07;;;;;;;;;;;;;;;3.93;97.96;100484.66;5048609;28;19956;-57
2022/11/21 04:41:32;;;;;;;;;;;;;;;3.90;97.72;100484.91;5046948;28;19913;-54
2022/11/21 04:43:57;;;;;;;;;;;;;;;3.85;97.86;100479.25;5050538;28;19912;-53
2022/11/21 04:46:22;;;;;;;;;;;;;;;3.81;97.84;100474.41;5051506;28;19913;-54
2022/11/21 04:48:47;;;;;;;;;;;;;;;3.81;97.39;100472.63;5050953;28;19920;-55
2022/11/21 04:51:12;;;;;;;;;;;;;;;3.77;97.69;100476.47;5050056;28;20475;-53
2022/11/21 04:53:38;;;;;;;;;;;;;;;3.77;97.54;100473.03;5051814;28;19923;-54
2022/11/21 04:56:04;;;;;;;;;;;;;;;3.77;97.45;100468.59;5051275;28;20304;-52
2022/11/21 04:58:29;;;;;;;;;;;;;;;3.77;97.70;100468.59;5051601;28;20380;-54
2022/11/21 05:00:54;;;;;;;;;;;;;;;3.79;97.97;100463.22;5049381;28;19912;-53
2022/11/21 05:03:20;;;;;;;;;;;;;;;3.78;97.87;100467.63;5051824;28;20294;-53
2022/11/21 05:05:45;;;;;;;;;;;;;;;3.80;97.94;100465.69;5049334;28;19912;-52
2022/11/21 05:08:10;;;;;;;;;;;;;;;3.79;97.75;100457.97;5056316;28;20315;-54
2022/11/21 05:13:19;;;;;;;;;;;;;;;3.78;97.84;100453.66;5057109;28;19952;-54
2022/11/21 05:13:20;;;;;;;;;;;;;;;3.74;97.61;100443.41;5044837;28;19913;-54
2022/11/21 05:15:50;;;;;;;;;;;;;;;3.72;97.64;100449.78;5046294;28;19917;-53
2022/11/21 05:18:15;;;;;;;;;;;;;;;3.67;97.67;100446.72;5051148;28;19916;-53
2022/11/21 05:20:40;;;;;;;;;;;;;;;3.65;97.45;100443.41;5043052;28;19923;-55
2022/11/21 05:23:05;;;;;;;;;;;;;;;3.63;97.59;100433.03;5050274;28;19913;-55
2022/11/21 05:25:30;;;;;;;;;;;;;;;3.64;97.49;100436.50;5053740;28;20007;-54
2022/11/21 05:27:56;;;;;;;;;;;;;;;3.61;97.56;100432.34;5049585;28;20453;-51
2022/11/21 05:30:21;;;;;;;;;;;;;;;3.59;97.46;100431.66;5049228;28;20359;-54
2022/11/21 05:32:46;;;;;;;;;;;;;;;3.59;97.66;100433.47;5053551;28;19913;-55
2022/11/21 05:35:11;;;;;;;;;;;;;;;3.54;97.80;100426.00;5044811;28;19964;-55
2022/11/21 05:37:36;;;;;;;;;;;;;;;3.51;97.56;100430.69;5051034;28;20338;-54
2022/11/21 05:40:02;;;;;;;;;;;;;;;3.51;97.69;100430.69;5049292;28;19913;-51
2022/11/21 05:45:12;;;;;;;;;;;;;;;3.52;97.59;100421.84;5036443;28;19914;-55
2022/11/21 05:47:39;;;;;;;;;;;;;;;3.55;97.71;100426.81;5046429;28;19919;-52
2022/11/21 05:50:05;;;;;;;;;;;;;;;3.53;97.68;100424.34;5047120;28;20435;-54
2022/11/21 05:52:30;;;;;;;;;;;;;;;3.55;97.61;100426.81;5050275;28;20058;-53
2022/11/21 05:54:55;;;;;;;;;;;;;;;3.55;97.42;100416.31;5049494;28;19964;-53
2022/11/21 05:57:20;;;;;;;;;;;;;;;3.54;97.39;100415.50;5050836;28;19995;-53
2022/11/21 05:59:46;;;;;;;;;;;;;;;3.55;97.53;100411.06;5046912;28;19912;-51
2022/11/21 06:04:55;;;;;;;;;;;;;;;3.55;97.71;100414.53;5049838;28;19962;-54
2022/11/21 06:07:20;;;;;;;;;;;;;;;3.58;97.60;100405.53;5049451;28;20007;-53
2022/11/21 06:09:45;;;;;;;;;;;;;;;3.57;97.95;100403.88;5047597;28;20296;-54
2022/11/21 06:12:10;;;;;;;;;;;;;;;3.59;97.82;100409.81;5051521;28;19948;-53
2022/11/21 06:14:35;;;;;;;;;;;;;;;3.59;97.53;100417.69;5049866;28;20006;-55
2022/11/21 06:17:00;;;;;;;;;;;;;;;3.57;97.62;100412.59;5046173;28;19948;-52
2022/11/21 06:19:26;;;;;;;;;;;;;;;3.57;97.46;100409.13;5049006;28;19952;-54
2022/11/21 06:21:51;;;;;;;;;;;;;;;3.56;97.41;100415.34;5051665;28;19913;-55
2022/11/21 06:24:16;;;;;;;;;;;;;;;3.56;97.37;100407.47;5048225;28;19963;-54
2022/11/21 06:26:41;;;;;;;;;;;;;;;3.58;97.44;100409.00;5039885;28;19921;-53
2022/11/21 06:29:09;;;;;;;;;;;;;;;3.55;97.42;100395.31;5038250;28;19917;-55
2022/11/21 06:31:34;;;;;;;;;;;;;;;3.59;97.69;100396.69;5043594;28;20475;-54
2022/11/21 06:33:59;;;;;;;;;;;;;;;3.61;97.47;100390.34;5045828;28;20127;-52
2022/11/21 06:36:25;;;;;;;;;;;;;;;3.62;97.65;100389.38;5048371;28;19917;-54
2022/11/21 06:38:51;;;;;;;;;;;;;;;3.64;97.65;100386.63;5045034;28;19913;-54
2022/11/21 06:41:18;;;;;;;;;;;;;;;3.66;97.72;100388.13;5047582;28;19940;-52
2022/11/21 06:43:43;;;;;;;;;;;;;;;3.69;97.55;100381.78;5046977;28;19971;-54
2022/11/21 06:46:09;;;;;;;;;;;;;;;3.72;97.80;100382.31;5043895;28;20400;-54
2022/11/21 06:48:34;;;;;;;;;;;;;;;3.76;97.94;100379.41;5045256;28;19921;-54
2022/11/21 06:51:03;;;;;;;;;;;;;;;3.79;97.80;100379.16;5046294;28;19923;-54
2022/11/21 06:53:29;;;;;;;;;;;;;;;3.81;98.08;100375.44;5045459;28;19977;-54
2022/11/21 06:55:56;;;;;;;;;;;;;;;3.82;98.05;100369.22;5044463;28;20380;-53
2022/11/21 06:58:22;;;;;;;;;;;;;;;3.84;98.11;100364.66;5046231;28;19923;-56
2022/11/21 07:00:47;;;;;;;;;;;;;;;3.88;97.88;100365.19;5046914;28;20019;-55
2022/11/21 07:03:12;;;;;;;;;;;;;;;3.90;98.03;100356.22;5045604;28;20380;-55
2022/11/21 07:05:38;;;;;;;;;;;;;;;3.92;97.78;100354.28;5043258;28;19917;-54
2022/11/21 07:08:03;;;;;;;;;;;;;;;3.96;97.86;100360.06;5048561;28;20400;-55
2022/11/21 07:10:29;;;;;;;;;;;;;;;3.98;97.74;100355.50;5043385;28;19917;-55
2022/11/21 07:15:41;;;;;;;;;;;;;;;4.06;98.14;100367.97;5045700;28;19939;-55
2022/11/21 07:18:06;;;;;;;;;;;;;;;4.09;98.23;100365.88;5044753;28;19921;-54
2022/11/21 07:20:31;;;;;;;;;;;;;;;4.11;98.35;100361.31;5038480;28;19986;-55
2022/11/21 07:22:57;;;;;;;;;;;;;;;4.14;98.40;100352.31;5040242;28;20756;-54
2022/11/21 07:25:22;;;;;;;;;;;;;;;4.16;98.58;100348.56;5044434;28;19923;-55
2022/11/21 07:27:47;;;;;;;;;;;;;;;4.19;98.48;100357.97;5048583;28;20627;-52
2022/11/21 07:30:12;;;;;;;;;;;;;;;4.21;98.36;100354.22;5047152;28;19947;-52
2022/11/21 07:32:38;;;;;;;;;;;;;;;4.24;98.50;100356.56;5048507;28;19924;-54
2022/11/21 07:35:03;;;;;;;;;;;;;;;4.27;98.48;100351.03;5048912;28;19924;-52
2022/11/21 07:37:28;;;;;;;;;;;;;;;4.30;98.78;100360.41;5039214;28;19925;-54
2022/11/21 07:39:54;;;;;;;;;;;;;;;4.31;99.22;100352.41;5041930;28;19956;-55
2022/11/21 07:42:19;;;;;;;;;;;;;;;4.33;99.15;100354.88;5042701;28;19935;-52
2022/11/21 07:44:44;;;;;;;;;;;;;;;4.34;99.34;100344.25;5048498;28;20369;-55
2022/11/21 07:47:09;;;;;;;;;;;;;;;4.38;99.55;100347.41;5048043;28;20008;-54
2022/11/21 07:49:34;;;;;;;;;;;;;;;4.34;99.70;100344.25;5041218;28;19913;-54
2022/11/21 07:51:59;;;;;;;;;;;;;;;4.41;99.92;100347.13;5045320;28;19952;-52
2022/11/21 07:54:25;;;;;;;;;;;;;;;4.43;100.00;100349.63;5048159;28;19944;-56
2022/11/21 07:56:50;;;;;;;;;;;;;;;4.45;100.00;100348.50;5048969;28;19935;-55
2022/11/21 07:59:18;;;;;;;;;;;;;;;4.47;100.00;100345.72;5045346;28;19956;-54
2022/11/21 08:01:43;;;;;;;;;;;;;;;4.48;100.00;100348.22;5040955;28;19917;-52
2022/11/21 08:04:08;;;;;;;;;;;;;;;4.52;100.00;100344.31;5047058;28;19917;-54
2022/11/21 08:06:33;;;;;;;;;;;;;;;4.55;100.00;100341.41;5048105;28;20419;-55
2022/11/21 08:09:00;;;;;;;;;;;;;;;4.57;100.00;100333.34;5046698;28;22262;-55
2022/11/21 08:11:25;;;;;;;;;;;;;;;4.58;100.00;100341.09;5046070;28;19912;-53
2022/11/21 08:13:51;;;;;;;;;;;;;;;4.60;100.00;100335.69;5049669;28;19913;-55
2022/11/21 08:16:16;;;;;;;;;;;;;;;4.62;100.00;100331.13;5048496;28;19927;-54
2022/11/21 08:18:41;;;;;;;;;;;;;;;4.64;100.00;100329.19;5051865;28;19913;-54
2022/11/21 08:21:06;;;;;;;;;;;;;;;4.68;100.00;100329.75;5051527;28;20007;-50
2022/11/21 08:23:31;;;;;;;;;;;;;;;4.70;100.00;100320.72;5051513;28;19913;-52
2022/11/21 08:25:56;;;;;;;;;;;;;;;4.72;100.00;100312.69;5051878;28;19916;-54
2022/11/21 08:28:22;;;;;;;;;;;;;;;4.73;100.00;100317.81;5051228;28;19916;-54
2022/11/21 08:30:48;;;;;;;;;;;;;;;4.77;100.00;100311.28;5051182;28;20331;-55
2022/11/21 08:33:13;;;;;;;;;;;;;;;4.80;100.00;100320.66;5051212;28;19917;-54
2022/11/21 08:35:38;;;;;;;;;;;;;;;4.84;100.00;100322.03;5050753;28;20479;-53
2022/11/21 08:38:03;;;;;;;;;;;;;;;4.86;100.00;100310.38;5060775;28;20372;-55
2022/11/21 08:40:29;;;;;;;;;;;;;;;4.90;100.00;100303.84;5050697;28;19924;-54
2022/11/21 08:42:58;;;;;;;;;;;;;;;4.91;100.00;100302.88;5052042;28;19913;-54
2022/11/21 08:45:24;;;;;;;;;;;;;;;4.93;100.00;100290.44;5051163;28;19920;-55
2022/11/21 08:47:49;;;;;;;;;;;;;;;4.95;100.00;100282.38;5051623;28;19917;-54
2022/11/21 08:50:15;;;;;;;;;;;;;;;4.95;100.00;100279.75;5056121;28;19913;-53
2022/11/21 08:52:40;;;;;;;;;;;;;;;4.97;100.00;100283.06;5050466;28;19939;-54
2022/11/21 08:55:05;;;;;;;;;;;;;;;4.99;100.00;100278.47;5050756;28;19927;-53
2022/11/21 08:57:31;;;;;;;;;;;;;;;5.01;100.00;100287.06;5050006;28;19962;-55
2022/11/21 08:59:56;;;;;;;;;;;;;;;5.05;100.00;100284.94;5059786;28;19970;-52
2022/11/21 09:02:21;;;;;;;;;;;;;;;5.06;100.00;100276.91;5058594;28;19955;-54
2022/11/21 09:04:46;;;;;;;;;;;;;;;5.08;100.00;100274.13;5051158;28;20513;-53
2022/11/21 09:07:11;;;;;;;;;;;;;;;5.09;100.00;100268.72;5051726;28;19913;-54
2022/11/21 09:09:37;;;;;;;;;;;;;;;5.11;100.00;100272.00;5049948;28;20007;-54
2022/11/21 09:12:02;;;;;;;;;;;;;;;5.14;100.00;100270.88;5051441;28;19913;-52
2022/11/21 09:19:56;;;;;;;;;;;;;;;5.20;100.00;100265.88;5046308;28;19930;-54
2022/11/21 09:22:22;;;;;;;;;;;;;;;5.23;100.00;100259.47;5048643;28;20016;-51
2022/11/21 09:24:47;;;;;;;;;;;;;;;5.28;100.00;100257.22;5049335;28;19975;-53
2022/11/21 09:27:12;;;;;;;;;;;;;;;5.33;100.00;100256.75;5050685;28;20384;-55
2022/11/21 09:29:38;;;;;;;;;;;;;;;5.34;100.00;100253.97;5046283;28;19939;-54
2022/11/21 09:32:03;;;;;;;;;;;;;;;5.36;100.00;100243.28;5050104;28;20387;-51
2022/11/21 09:34:30;;;;;;;;;;;;;;;5.38;100.00;100243.97;5050963;28;19928;-55
2022/11/21 09:36:55;;;;;;;;;;;;;;;5.40;100.00;100247.28;5049590;28;19959;-53
2022/11/21 09:39:20;;;;;;;;;;;;;;;5.45;100.00;100250.28;5050028;28;20519;-52
2022/11/21 09:42:04;;;;;;;;;;;;;;;5.50;100.00;100240.97;5050197;28;19920;-55
2022/11/21 09:44:45;;;;;;;;;;;;;;;5.57;100.00;100238.53;5051172;28;19920;-53
2022/11/21 09:47:16;;;;;;;;;;;;;;;5.62;100.00;100238.06;5050528;28;19921;-55
2022/11/21 09:49:45;;;;;;;;;;;;;;;5.63;100.00;100214.22;5049457;28;19947;-55
2022/11/21 09:52:13;;;;;;;;;;;;;;;5.71;100.00;100227.44;5050447;28;20534;-53
2022/11/21 09:54:41;;;;;;;;;;;;;;;5.74;100.00;100221.84;5050282;28;19921;-55
2022/11/21 09:57:09;;;;;;;;;;;;;;;5.79;100.00;100227.50;5050449;28;19967;-53
2022/11/21 09:59:36;;;;;;;;;;;;;;;5.80;100.00;100226.53;5049120;28;19916;-55
2022/11/21 10:02:02;;;;;;;;;;;;;;;5.86;100.00;100225.91;5050933;28;19923;-54
2022/11/21 10:04:27;;;;;;;;;;;;;;;5.90;100.00;100214.09;5046714;28;19920;-53
2022/11/21 10:07:11;;;;;;;;;;;;;;;5.96;100.00;100211.81;5049314;28;19913;-54
2022/11/21 10:09:44;;;;;;;;;;;;;;;6.06;100.00;100208.06;5038270;28;19913;-55
2022/11/21 10:12:38;;;;;;;;;;;;;;;6.15;100.00;100198.41;5045597;28;19920;-53
2022/11/21 10:15:14;;;;;;;;;;;;;;;6.21;100.00;100205.69;5049942;28;20058;-51
2022/11/21 10:17:51;;;;;;;;;;;;;;;6.27;100.00;100197.13;5046111;28;19917;-55
2022/11/21 10:20:20;;;;;;;;;;;;;;;6.33;100.00;100201.78;5044020;28;19917;-53
2022/11/21 10:22:55;;;;;;;;;;;;;;;6.40;100.00;100197.53;5049708;28;19927;-54
2022/11/21 10:25:25;;;;;;;;;;;;;;;6.48;100.00;100194.91;5045842;28;19919;-54
2022/11/21 10:28:01;;;;;;;;;;;;;;;6.53;100.00;100189.16;5050289;28;19916;-54
2022/11/21 10:30:26;;;;;;;;;;;;;;;6.54;100.00;100177.63;5046338;28;19913;-54
2022/11/21 10:33:00;;;;;;;;;;;;;;;6.52;99.25;100180.41;5048930;28;19920;-55
2022/11/21 10:35:44;;;;;;;;;;;;;;;6.52;98.98;100176.97;5044108;28;19920;-55
2022/11/21 10:38:28;;;;;;;;;;;;;;;6.52;98.72;100180.41;5038639;28;19928;-56
2022/11/21 10:41:11;;;;;;;;;;;;;;;6.55;98.59;100174.00;5047140;28;19917;-53
2022/11/21 10:46:28;;;;;;;;;;;;;;;6.61;98.64;100164.59;5050049;28;19935;-57
2022/11/21 10:48:53;;;;;;;;;;;;;;;6.59;98.16;100161.31;5048430;28;19916;-54
2022/11/21 10:51:23;;;;;;;;;;;;;;;6.57;97.81;100158.81;5048709;28;19920;-56
2022/11/21 10:56:45;;;;;;;;;;;;;;;6.58;97.63;100152.56;5050219;28;19928;-55
2022/11/21 10:59:12;;;;;;;;;;;;;;;6.60;97.26;100155.03;5048013;28;19912;-56
2022/11/21 11:01:37;;;;;;;;;;;;;;;6.61;97.32;100151.41;5047367;28;19944;-55
2022/11/21 11:04:09;;;;;;;;;;;;;;;6.66;97.00;100138.59;5050784;28;19960;-56
2022/11/21 11:06:38;;;;;;;;;;;;;;;6.72;96.97;100130.00;5048053;28;20218;-55
2022/11/21 11:09:03;;;;;;;;;;;;;;;6.77;96.85;100131.16;5048135;28;20372;-55
2022/11/21 11:11:29;;;;;;;;;;;;;;;6.88;96.88;100126.56;5048800;28;19963;-55
2022/11/21 11:13:59;;;;;;;;;;;;;;;7.01;97.36;100122.44;5048427;28;19917;-55
2022/11/21 11:16:25;;;;;;;;;;;;;;;7.08;97.30;100114.69;5049541;28;20315;-53
2022/11/21 11:19:20;;;;;;;;;;;;;;;7.06;96.72;100121.94;5048588;28;19924;-53
2022/11/21 11:21:46;;;;;;;;;;;;;;;7.07;95.87;100113.84;5034965;28;19959;-54
2022/11/21 11:24:11;;;;;;;;;;;;;;;7.15;95.99;100098.00;5046333;28;20331;-53
2022/11/21 11:26:45;;;;;;;;;;;;;;;7.28;96.05;100105.44;5047467;28;19917;-52
2022/11/21 11:29:19;;;;;;;;;;;;;;;7.42;96.70;100102.09;5043406;28;19919;-53
2022/11/21 11:31:50;;;;;;;;;;;;;;;7.56;96.61;100102.41;5045987;28;19920;-54
2022/11/21 11:34:16;;;;;;;;;;;;;;;7.60;95.83;100093.97;5047639;28;20418;-56
2022/11/21 11:37:00;;;;;;;;;;;;;;;7.70;95.62;100089.31;5047354;28;19917;-54
2022/11/21 11:39:35;;;;;;;;;;;;;;;7.84;94.58;100079.84;5045474;28;20334;-54
2022/11/21 11:48:06;;;;;;;;;;;;;;;8.17;90.83;100047.97;5041951;28;19924;-54
2022/11/21 11:50:38;;;;;;;;;;;;;;;8.37;90.38;100051.81;5050219;28;20031;-54
2022/11/21 11:53:03;;;;;;;;;;;;;;;8.49;89.22;100039.03;5051387;28;19932;-55
2022/11/21 11:55:39;;;;;;;;;;;;;;;8.62;89.39;100026.81;5051496;28;19921;-55
2022/11/21 11:58:06;;;;;;;;;;;;;;;8.82;88.72;100024.50;5049823;28;21575;-55
2022/11/21 12:00:37;;;;;;;;;;;;;;;8.93;87.82;100012.66;5050416;28;19917;-55
2022/11/21 12:03:11;;;;;;;;;;;;;;;9.06;88.14;100012.06;5050124;28;20062;-55
2022/11/21 12:05:38;;;;;;;;;;;;;;;9.15;87.64;100009.13;5050397;28;19923;-56
2022/11/21 12:08:17;;;;;;;;;;;;;;;9.32;88.50;100004.50;5046748;28;19952;-54
2022/11/21 12:13:49;;;;;;;;;;;;;;;9.41;86.33;99991.97;5048366;28;19931;-54
2022/11/21 12:16:16;;;;;;;;;;;;;;;9.34;85.08;99986.59;5052185;28;20323;-56
2022/11/21 12:18:44;;;;;;;;;;;;;;;9.28;83.97;99979.38;5048986;28;19946;-56
2022/11/21 12:21:17;;;;;;;;;;;;;;;9.25;84.09;99977.91;5048238;28;19943;-55
2022/11/21 12:23:51;;;;;;;;;;;;;;;9.20;83.10;99967.00;5053381;28;19959;-55
2022/11/21 12:26:19;;;;;;;;;;;;;;;9.16;83.90;99959.63;5052354;28;20392;-54
2022/11/21 12:29:02;;;;;;;;;;;;;;;9.11;84.15;99959.34;5055127;28;19918;-55
2022/11/21 12:31:41;;;;;;;;;;;;;;;9.03;83.70;99954.97;5051572;28;20000;-55
2022/11/21 12:34:16;;;;;;;;;;;;;;;8.99;83.94;99949.22;5051946;28;20011;-53
2022/11/21 12:36:47;;;;;;;;;;;;;;;9.01;84.28;99946.41;5048186;28;19916;-56
2022/11/21 12:39:21;;;;;;;;;;;;;;;8.98;85.11;99936.16;5043099;28;19996;-56
2022/11/21 12:44:42;;;;;;;;;;;;;;;8.91;85.43;99928.09;5052383;28;19919;-53
2022/11/21 12:47:16;;;;;;;;;;;;;;;8.89;85.79;99924.81;5050944;28;20408;-55
2022/11/21 12:55:36;;;;;;;;;;;;;;;8.83;84.20;99912.31;5047612;28;20060;-52
2022/11/21 12:58:13;;;;;;;;;;;;;;;8.87;85.22;99897.72;5045565;28;19969;-55
2022/11/21 13:00:48;;;;;;;;;;;;;;;8.86;85.99;99892.59;5045560;28;19951;-55
2022/11/21 13:03:27;;;;;;;;;;;;;;;8.83;85.83;99890.31;5046854;28;19921;-55
2022/11/21 13:05:54;;;;;;;;;;;;;;;8.78;85.22;99879.47;5043941;28;19940;-56
2022/11/21 13:08:28;;;;;;;;;;;;;;;8.73;84.88;99874.72;5051470;28;20315;-53
2022/11/21 13:11:57;;;;;;;;;;;;;;;8.70;85.62;99869.78;5047253;28;20347;-55
2022/11/21 13:13:42;;;;;;;;;;;;;;;8.64;86.03;99863.38;5045916;28;19916;-55
2022/11/21 13:16:10;;;;;;;;;;;;;;;8.60;86.03;99854.16;5051197;28;20015;-53
2022/11/21 13:18:41;;;;;;;;;;;;;;;8.55;85.03;99842.47;5051319;28;19913;-54
2022/11/21 13:21:26;;;;;;;;;;;;;;;8.48;85.38;99831.00;5048299;28;19917;-54
2022/11/21 13:23:51;;;;;;;;;;;;;;;8.43;86.27;99823.59;5047891;28;20016;-54